createdAt,value
2022-11-07T00:02:25.184Z,90.85
2022-11-07T00:04:51.942Z,90.87
2022-11-07T00:07:18.537Z,90.88
2022-11-07T00:09:45.069Z,90.75
2022-11-07T00:12:11.622Z,90.38
2022-11-07T00:14:40.310Z,90.68
2022-11-07T00:17:10.145Z,90.20
2022-11-07T00:19:39.456Z,89.75
2022-11-07T00:22:05.959Z,88.83
2022-11-07T00:24:32.494Z,89.06
2022-11-07T00:26:59.008Z,89.58
2022-11-07T00:29:25.686Z,89.53
2022-11-07T00:31:54.704Z,89.10
2022-11-07T00:34:23.702Z,89.51
2022-11-07T00:36:52.552Z,89.79
2022-11-07T00:39:21.433Z,89.25
2022-11-07T00:41:50.559Z,88.88
2022-11-07T00:44:22.825Z,88.72
2022-11-07T00:46:49.385Z,88.92
2022-11-07T00:49:18.802Z,88.85
2022-11-07T00:51:47.711Z,87.98
2022-11-07T00:54:16.736Z,88.90
2022-11-07T00:56:45.473Z,89.46
2022-11-07T00:59:12.811Z,89.69
2022-11-07T01:01:42.156Z,89.73
2022-11-07T01:04:32.859Z,89.38
2022-11-07T01:06:59.555Z,89.60
2022-11-07T01:09:26.319Z,90.32
2022-11-07T01:11:55.082Z,90.80
2022-11-07T01:14:22.963Z,91.60
2022-11-07T01:16:52.417Z,92.31
2022-11-07T01:19:19.687Z,92.62
2022-11-07T01:21:46.472Z,91.52
2022-11-07T01:24:13.993Z,91.17
2022-11-07T01:26:47.766Z,90.56
2022-11-07T01:29:20.655Z,89.46
2022-11-07T01:31:47.352Z,89.28
2022-11-07T01:34:17.754Z,89.19
2022-11-07T01:36:44.919Z,89.48
2022-11-07T01:39:15.970Z,89.31
2022-11-07T01:41:45.261Z,89.60
2022-11-07T01:44:14.728Z,89.84
2022-11-07T01:46:47.891Z,90.71
2022-11-07T01:49:32.345Z,90.60
2022-11-07T01:52:02.676Z,90.69
2022-11-07T01:54:34.429Z,90.05
2022-11-07T01:57:09.220Z,90.63
2022-11-07T01:59:37.377Z,90.46
2022-11-07T02:02:05.228Z,90.63
2022-11-07T02:04:35.244Z,90.69
2022-11-07T02:07:11.488Z,89.93
2022-11-07T02:09:38.116Z,90.13
2022-11-07T02:12:08.490Z,91.33
2022-11-07T02:14:35.075Z,93.32
2022-11-07T02:17:01.728Z,92.99
2022-11-07T02:19:36.204Z,93.30
2022-11-07T02:22:13.858Z,92.05
2022-11-07T02:24:41.004Z,91.27
2022-11-07T02:27:12.934Z,91.02
2022-11-07T02:29:44.694Z,90.61
2022-11-07T02:32:14.506Z,91.04
2022-11-07T02:34:41.194Z,90.44
2022-11-07T02:37:23.879Z,89.93
2022-11-07T02:39:50.907Z,89.77
2022-11-07T02:42:17.781Z,90.63
2022-11-07T02:44:49.579Z,91.46
2022-11-07T02:47:19.391Z,91.58
2022-11-07T02:49:47.972Z,91.14
2022-11-07T02:52:17.179Z,90.40
2022-11-07T02:54:43.682Z,90.21
2022-11-07T02:57:10.160Z,90.59
2022-11-07T02:59:39.113Z,90.54
2022-11-07T03:02:05.748Z,91.11
2022-11-07T03:04:32.350Z,91.82
2022-11-07T03:06:58.884Z,92.07
2022-11-07T03:09:25.379Z,91.53
2022-11-07T03:11:53.173Z,90.83
2022-11-07T03:14:22.374Z,90.85
2022-11-07T03:16:51.178Z,90.12
2022-11-07T03:19:17.694Z,90.40
2022-11-07T03:21:46.657Z,90.28
2022-11-07T03:24:13.194Z,90.27
2022-11-07T03:26:41.800Z,90.07
2022-11-07T03:29:08.819Z,89.77
2022-11-07T03:31:35.509Z,89.61
2022-11-07T03:34:02.127Z,90.36
2022-11-07T03:36:28.661Z,89.89
2022-11-07T03:38:57.750Z,89.69
2022-11-07T03:41:24.136Z,89.33
2022-11-07T03:43:50.692Z,89.34
2022-11-07T03:46:17.456Z,89.31
2022-11-07T03:48:44.088Z,90.27
2022-11-07T03:51:12.846Z,90.46
2022-11-07T03:53:44.714Z,90.82
2022-11-07T03:56:14.761Z,92.30
2022-11-07T03:58:41.341Z,91.79
2022-11-07T04:01:10.505Z,91.79
2022-11-07T04:03:37.356Z,92.01
2022-11-07T04:06:08.851Z,92.03
2022-11-07T04:08:39.103Z,91.57
2022-11-07T04:11:05.736Z,91.08
2022-11-07T04:13:50.744Z,90.72
2022-11-07T04:16:39.716Z,91.33
2022-11-07T04:19:06.253Z,91.88
2022-11-07T04:21:37.602Z,91.36
2022-11-07T04:24:06.580Z,91.46
2022-11-07T04:26:51.460Z,91.49
2022-11-07T04:29:17.955Z,91.54
2022-11-07T04:31:44.443Z,91.14
2022-11-07T04:34:10.942Z,91.78
2022-11-07T04:36:40.122Z,92.07
2022-11-07T04:39:06.611Z,91.15
2022-11-07T04:41:35.415Z,90.86
2022-11-07T04:44:04.399Z,91.18
2022-11-07T04:46:33.380Z,90.95
2022-11-07T04:49:02.105Z,90.53
2022-11-07T04:51:28.632Z,90.50
2022-11-07T04:53:55.127Z,90.54
2022-11-07T04:56:21.635Z,90.33
2022-11-07T04:58:48.147Z,91.04
2022-11-07T05:01:16.802Z,91.03
2022-11-07T05:03:45.818Z,90.49
2022-11-07T05:06:14.608Z,89.64
2022-11-07T05:08:46.422Z,89.39
2022-11-07T05:11:12.922Z,89.13
2022-11-07T05:13:39.489Z,89.88
2022-11-07T05:16:09.233Z,90.11
2022-11-07T05:18:35.755Z,90.06
2022-11-07T05:21:02.299Z,89.54
2022-11-07T05:23:28.773Z,89.29
2022-11-07T05:25:55.524Z,89.35
2022-11-07T05:28:36.797Z,89.76
2022-11-07T05:31:05.082Z,91.31
2022-11-07T05:33:32.002Z,90.96
2022-11-07T05:36:09.082Z,91.19
2022-11-07T05:38:35.626Z,91.51
2022-11-07T05:41:05.399Z,91.57
2022-11-07T05:43:36.510Z,91.53
2022-11-07T05:46:05.278Z,92.04
2022-11-07T05:48:34.256Z,91.45
2022-11-07T05:51:04.064Z,92.27
2022-11-07T05:53:30.791Z,91.58
2022-11-07T05:55:57.785Z,91.45
2022-11-07T05:58:24.665Z,92.52
2022-11-07T06:00:51.278Z,92.13
2022-11-07T06:03:21.619Z,92.17
2022-11-07T06:05:48.209Z,92.61
2022-11-07T06:08:15.254Z,92.14
2022-11-07T06:10:43.608Z,92.67
2022-11-07T06:13:16.560Z,92.13
2022-11-07T06:15:45.356Z,91.60
2022-11-07T06:18:19.548Z,90.66
2022-11-07T06:20:53.451Z,90.93
2022-11-07T06:23:20.248Z,91.78
2022-11-07T06:25:47.592Z,91.41
2022-11-07T06:28:14.967Z,91.56
2022-11-07T06:30:41.791Z,91.60
2022-11-07T06:33:12.707Z,91.34
2022-11-07T06:35:39.666Z,92.57
2022-11-07T06:38:12.992Z,93.11
2022-11-07T06:40:41.325Z,92.99
2022-11-07T06:43:16.186Z,92.40
2022-11-07T06:45:44.681Z,92.62
2022-11-07T06:48:12.630Z,92.35
2022-11-07T06:50:39.481Z,92.41
2022-11-07T06:53:11.134Z,92.53
2022-11-07T06:55:38.838Z,92.95
2022-11-07T06:58:08.379Z,93.30
2022-11-07T07:00:36.583Z,94.05
2022-11-07T07:03:03.714Z,93.48
2022-11-07T07:05:30.330Z,92.19
2022-11-07T07:07:59.574Z,92.63
2022-11-07T07:10:26.254Z,91.15
2022-11-07T07:12:56.628Z,89.23
2022-11-07T07:15:26.564Z,89.17
2022-11-07T07:17:53.099Z,89.63
2022-11-07T07:20:24.266Z,88.47
2022-11-07T07:22:57.972Z,87.41
2022-11-07T07:25:27.060Z,87.88
2022-11-07T07:27:53.760Z,87.58
2022-11-07T07:30:22.564Z,86.71
2022-11-07T07:36:36.022Z,85.40
2022-11-07T07:39:05.634Z,85.28
2022-11-07T07:41:36.257Z,85.29
2022-11-07T07:44:07.948Z,85.26
2022-11-07T07:46:37.496Z,85.09
2022-11-07T07:49:03.983Z,84.84
2022-11-07T07:51:30.464Z,85.21
2022-11-07T07:53:57.023Z,86.05
2022-11-07T07:56:25.816Z,85.71
2022-11-07T07:58:54.572Z,85.25
2022-11-07T08:01:23.656Z,84.38
2022-11-07T08:04:01.454Z,84.94
2022-11-07T08:06:29.691Z,84.15
2022-11-07T08:08:56.296Z,84.16
2022-11-07T08:11:25.803Z,83.84
2022-11-07T08:13:53.134Z,84.43
2022-11-07T08:16:21.670Z,84.44
2022-11-07T08:18:48.196Z,84.24
2022-11-07T08:21:14.856Z,83.25
2022-11-07T08:23:43.819Z,83.96
2022-11-07T08:26:10.310Z,84.17
2022-11-07T08:28:36.888Z,83.62
2022-11-07T08:31:09.482Z,83.50
2022-11-07T08:33:36.479Z,84.58
2022-11-07T08:36:07.152Z,85.49
2022-11-07T08:38:35.968Z,85.04
2022-11-07T08:41:03.513Z,84.25
2022-11-07T08:43:32.356Z,85.05
2022-11-07T08:45:59.064Z,83.42
2022-11-07T08:48:25.773Z,84.74
2022-11-07T08:50:56.329Z,85.05
2022-11-07T08:53:25.067Z,83.56
2022-11-07T08:56:01.004Z,83.95
2022-11-07T08:58:31.083Z,82.38
2022-11-07T09:00:58.191Z,82.67
2022-11-07T09:06:11.902Z,82.17
2022-11-07T09:08:38.583Z,83.97
2022-11-07T09:11:07.501Z,83.22
2022-11-07T09:13:37.215Z,83.39
2022-11-07T09:16:05.129Z,83.58
2022-11-07T09:18:34.597Z,83.42
2022-11-07T09:21:01.440Z,82.95
2022-11-07T09:23:29.581Z,83.66
2022-11-07T09:26:23.289Z,83.48
2022-11-07T09:28:52.938Z,84.31
2022-11-07T09:31:24.509Z,84.24
2022-11-07T09:33:55.467Z,82.28
2022-11-07T09:36:24.109Z,81.34
2022-11-07T09:38:51.111Z,81.58
2022-11-07T09:41:39.393Z,82.05
2022-11-07T09:44:34.265Z,81.16
2022-11-07T09:47:17.067Z,80.97
2022-11-07T09:50:07.722Z,81.97
2022-11-07T09:52:58.469Z,81.70
2022-11-07T09:55:36.418Z,82.20
2022-11-07T09:58:24.601Z,82.79
2022-11-07T10:05:13.909Z,80.88
2022-11-07T10:08:05.880Z,81.12
2022-11-07T10:10:47.276Z,80.12
2022-11-07T10:13:27.067Z,79.69
2022-11-07T10:16:08.556Z,81.32
2022-11-07T10:19:00.827Z,81.93
2022-11-07T10:21:37.643Z,81.07
2022-11-07T10:24:13.877Z,81.78
2022-11-07T10:26:44.295Z,81.25
2022-11-07T10:29:16.701Z,82.22
2022-11-07T10:31:53.384Z,80.73
2022-11-07T10:34:54.154Z,79.96
2022-11-07T10:37:21.353Z,80.57
2022-11-07T10:39:50.053Z,78.99
2022-11-07T10:42:22.764Z,79.59
2022-11-07T10:44:49.326Z,77.18
2022-11-07T10:47:22.634Z,78.86
2022-11-07T10:50:01.551Z,80.49
2022-11-07T10:52:29.449Z,77.94
2022-11-07T10:55:10.026Z,77.58
2022-11-07T10:57:38.862Z,81.10
2022-11-07T11:00:28.024Z,82.36
2022-11-07T11:02:58.303Z,82.96
2022-11-07T11:05:32.935Z,83.23
2022-11-07T11:08:19.158Z,82.58
2022-11-07T11:10:51.409Z,80.69
2022-11-07T11:13:44.175Z,80.99
2022-11-07T11:16:13.780Z,79.84
2022-11-07T11:18:49.999Z,77.23
2022-11-07T11:21:19.273Z,79.09
2022-11-07T11:23:48.988Z,78.12
2022-11-07T11:26:35.522Z,79.10
2022-11-07T11:29:09.185Z,80.38
2022-11-07T11:31:51.787Z,80.95
2022-11-07T11:34:24.541Z,81.22
2022-11-07T11:36:56.840Z,82.14
2022-11-07T11:39:37.927Z,79.88
2022-11-07T11:42:05.458Z,81.21
2022-11-07T11:44:41.849Z,82.14
2022-11-07T11:47:08.295Z,81.52
2022-11-07T11:49:50.295Z,82.55
2022-11-07T11:52:23.311Z,82.12
2022-11-07T11:54:51.996Z,80.42
2022-11-07T11:57:26.544Z,81.76
2022-11-07T12:00:05.288Z,82.19
2022-11-07T12:02:47.588Z,81.80
2022-11-07T12:05:41.760Z,83.84
2022-11-07T12:08:29.605Z,79.52
2022-11-07T12:11:12.399Z,80.87
2022-11-07T12:13:47.596Z,82.89
2022-11-07T12:16:26.510Z,84.30
2022-11-07T12:19:02.357Z,83.64
2022-11-07T12:21:34.134Z,83.73
2022-11-07T12:24:00.604Z,80.72
2022-11-07T12:26:41.802Z,82.09
2022-11-07T12:29:53.187Z,82.20
2022-11-07T12:32:33.247Z,79.37
2022-11-07T12:35:40.153Z,80.94
2022-11-07T12:38:15.849Z,80.07
2022-11-07T12:41:08.178Z,80.56
2022-11-07T12:43:43.657Z,81.05
2022-11-07T12:46:30.496Z,81.33
2022-11-07T12:49:26.232Z,82.19
2022-11-07T12:52:17.763Z,76.15
2022-11-07T12:54:56.582Z,76.94
2022-11-07T12:57:27.564Z,79.24
2022-11-07T13:00:00.147Z,75.81
2022-11-07T13:02:54.322Z,77.25
2022-11-07T13:05:20.935Z,76.76
2022-11-07T13:07:59.204Z,78.19
2022-11-07T13:10:50.129Z,78.95
2022-11-07T13:13:25.588Z,80.10
2022-11-07T13:16:14.630Z,78.16
2022-11-07T13:21:15.889Z,77.85
2022-11-07T13:23:45.738Z,79.19
2022-11-07T13:26:44.553Z,78.03
2022-11-07T13:29:01.195Z,79.30
2022-11-07T13:31:30.899Z,79.78
2022-11-07T13:34:17.690Z,79.71
2022-11-07T13:36:48.483Z,80.57
2022-11-07T13:39:22.486Z,79.61
2022-11-07T13:41:49.278Z,79.54
2022-11-07T13:44:38.591Z,80.45
2022-11-07T13:47:13.697Z,79.91
2022-11-07T13:49:50.092Z,79.86
2022-11-07T13:52:48.399Z,79.92
2022-11-07T13:55:22.665Z,78.83
2022-11-07T13:58:01.090Z,81.16
2022-11-07T14:00:30.207Z,80.96
2022-11-07T14:02:58.661Z,79.72
2022-11-07T14:05:36.084Z,80.30
2022-11-07T14:08:05.818Z,81.30
2022-11-07T14:10:39.060Z,80.37
2022-11-07T14:13:12.318Z,80.42
2022-11-07T14:15:53.268Z,79.88
2022-11-07T14:18:25.220Z,79.82
2022-11-07T14:20:57.227Z,80.11
2022-11-07T14:23:32.515Z,78.90
2022-11-07T14:26:23.687Z,78.93
2022-11-07T14:28:54.054Z,78.80
2022-11-07T14:31:30.612Z,78.29
2022-11-07T14:34:00.650Z,78.71
2022-11-07T14:36:33.070Z,78.19
2022-11-07T14:39:15.736Z,77.70
2022-11-07T14:41:48.832Z,77.48
2022-11-07T14:44:41.937Z,77.42
2022-11-07T14:47:23.403Z,77.88
2022-11-07T14:49:54.495Z,77.46
2022-11-07T14:52:33.138Z,78.02
2022-11-07T14:55:05.630Z,77.34
2022-11-07T14:57:41.009Z,77.50
2022-11-07T15:00:12.937Z,77.01
2022-11-07T15:02:44.485Z,77.53
2022-11-07T15:05:40.683Z,77.51
2022-11-07T15:08:31.815Z,78.84
2022-11-07T15:11:22.027Z,79.39
2022-11-07T15:13:48.693Z,78.48
2022-11-07T15:16:22.691Z,80.61
2022-11-07T15:19:00.371Z,80.10
2022-11-07T15:21:39.457Z,80.65
2022-11-07T15:24:24.932Z,81.71
2022-11-07T15:27:05.187Z,82.55
2022-11-07T15:29:37.361Z,82.00
2022-11-07T15:32:15.998Z,82.30
2022-11-07T15:35:03.653Z,83.18
2022-11-07T15:37:31.980Z,82.99
2022-11-07T15:40:10.127Z,81.39
2022-11-07T15:42:36.672Z,81.80
2022-11-07T15:45:05.515Z,81.80
2022-11-07T15:47:32.060Z,83.33
2022-11-07T15:49:58.893Z,83.01
2022-11-07T15:52:27.918Z,82.84
2022-11-07T15:54:54.428Z,83.08
2022-11-07T15:57:21.008Z,84.23
2022-11-07T15:59:50.579Z,84.73
2022-11-07T16:02:17.873Z,85.33
2022-11-07T16:04:44.556Z,85.40
2022-11-07T16:07:19.888Z,84.83
2022-11-07T16:09:51.042Z,84.37
2022-11-07T16:12:19.028Z,84.54
2022-11-07T16:14:50.211Z,84.73
2022-11-07T16:17:20.216Z,84.12
2022-11-07T16:19:49.169Z,83.35
2022-11-07T16:22:16.468Z,84.85
2022-11-07T16:24:43.099Z,84.79
2022-11-07T16:27:16.509Z,84.95
2022-11-07T16:29:46.012Z,84.73
2022-11-07T16:32:17.578Z,85.69
2022-11-07T16:34:45.341Z,87.30
2022-11-07T16:37:14.272Z,86.08
2022-11-07T16:39:40.980Z,87.07
2022-11-07T16:42:13.874Z,87.21
2022-11-07T16:44:40.580Z,86.10
2022-11-07T16:47:13.321Z,85.81
2022-11-07T16:49:39.873Z,85.82
2022-11-07T16:52:09.077Z,84.94
2022-11-07T16:54:40.574Z,85.49
2022-11-07T16:57:12.858Z,84.28
2022-11-07T16:59:40.170Z,84.83
2022-11-07T17:02:21.465Z,83.97
2022-11-07T17:04:52.775Z,84.21
2022-11-07T17:07:24.072Z,83.93
2022-11-07T17:09:50.921Z,84.90
2022-11-07T17:12:21.822Z,86.17
2022-11-07T17:14:49.275Z,86.84
2022-11-07T17:17:19.320Z,86.26
2022-11-07T17:19:45.965Z,85.75
2022-11-07T17:26:11.042Z,84.87
2022-11-07T17:28:45.035Z,84.15
2022-11-07T17:34:15.003Z,83.19
2022-11-07T17:36:47.569Z,82.74
2022-11-07T17:39:21.111Z,82.09
2022-11-07T17:41:49.706Z,81.65
2022-11-07T17:44:19.260Z,81.46
2022-11-07T17:46:49.772Z,81.51
2022-11-07T17:49:22.043Z,82.17
2022-11-07T17:51:54.169Z,82.65
2022-11-07T17:57:25.725Z,84.12
2022-11-07T17:59:52.476Z,84.99
2022-11-07T18:02:22.590Z,86.12
2022-11-07T18:04:52.273Z,86.10
2022-11-07T18:07:40.882Z,85.75
2022-11-07T18:10:08.276Z,85.95
2022-11-07T18:12:34.954Z,84.58
2022-11-07T18:15:01.579Z,84.35
2022-11-07T18:17:30.785Z,84.24
2022-11-07T18:19:57.201Z,83.87
2022-11-07T18:22:28.604Z,84.66
2022-11-07T18:24:55.188Z,86.92
2022-11-07T18:27:24.179Z,86.91
2022-11-07T18:29:50.769Z,85.82
2022-11-07T18:32:51.614Z,84.87
2022-11-07T18:35:18.373Z,85.98
2022-11-07T18:37:44.993Z,87.18
2022-11-07T18:40:14.470Z,87.10
2022-11-07T18:42:45.727Z,87.39
2022-11-07T18:45:15.610Z,86.96
2022-11-07T18:47:44.457Z,86.92
2022-11-07T18:50:14.045Z,85.65
2022-11-07T18:52:45.823Z,86.25
2022-11-07T18:55:17.251Z,88.01
2022-11-07T18:57:47.119Z,88.00
2022-11-07T19:00:14.910Z,88.62
2022-11-07T19:02:41.684Z,87.11
2022-11-07T19:05:10.640Z,86.58
2022-11-07T19:07:39.830Z,85.49
2022-11-07T19:10:46.757Z,86.35
2022-11-07T19:13:22.944Z,87.09
2022-11-07T19:15:53.581Z,86.40
2022-11-07T19:18:21.140Z,87.39
2022-11-07T19:20:52.726Z,88.13
2022-11-07T19:23:22.353Z,87.85
2022-11-07T19:25:51.669Z,87.92
2022-11-07T19:28:18.340Z,86.97
2022-11-07T19:30:47.390Z,85.85
2022-11-07T19:33:16.030Z,86.35
2022-11-07T19:35:43.243Z,86.59
2022-11-07T19:38:13.960Z,87.09
2022-11-07T19:40:43.968Z,87.70
2022-11-07T19:43:13.269Z,87.65
2022-11-07T19:45:41.437Z,86.96
2022-11-07T19:48:14.534Z,87.44
2022-11-07T19:50:41.090Z,87.35
2022-11-07T19:53:12.425Z,87.16
2022-11-07T19:55:39.367Z,87.66
2022-11-07T19:58:09.247Z,87.20
2022-11-07T20:00:35.849Z,86.51
2022-11-07T20:03:02.538Z,87.06
2022-11-07T20:05:34.423Z,87.92
2022-11-07T20:08:05.192Z,88.59
2022-11-07T20:10:33.160Z,88.47
2022-11-07T20:12:59.665Z,87.18
2022-11-07T20:15:26.326Z,86.03
2022-11-07T20:17:52.848Z,85.63
2022-11-07T20:20:19.448Z,86.43
2022-11-07T20:22:49.863Z,86.67
2022-11-07T20:25:16.849Z,86.85
2022-11-07T20:27:43.556Z,87.10
2022-11-07T20:30:10.884Z,85.44
2022-11-07T20:32:37.698Z,85.17
2022-11-07T20:35:07.238Z,85.34
2022-11-07T20:37:36.134Z,84.56
2022-11-07T20:40:03.134Z,86.14
2022-11-07T20:42:31.940Z,87.14
2022-11-07T20:45:00.906Z,85.83
2022-11-07T20:47:27.484Z,85.40
2022-11-07T20:49:54.138Z,85.60
2022-11-07T20:52:23.996Z,85.83
2022-11-07T20:54:52.582Z,85.34
2022-11-07T20:57:19.091Z,85.30
2022-11-07T20:59:48.021Z,85.42
2022-11-07T21:02:14.666Z,85.54
2022-11-07T21:05:03.235Z,85.55
2022-11-07T21:07:27.761Z,86.12
2022-11-07T21:09:54.650Z,86.33
2022-11-07T21:12:23.943Z,86.38
2022-11-07T21:14:50.522Z,87.35
2022-11-07T21:17:19.375Z,87.98
2022-11-07T21:19:45.878Z,89.06
2022-11-07T21:22:12.365Z,89.04
2022-11-07T21:24:38.879Z,90.19
2022-11-07T21:27:05.930Z,89.70
2022-11-07T21:29:37.589Z,89.49
2022-11-07T21:32:06.835Z,89.59
2022-11-07T21:34:40.119Z,89.93
2022-11-07T21:37:12.834Z,89.42
2022-11-07T21:39:39.613Z,88.88
2022-11-07T21:42:08.506Z,88.46
2022-11-07T21:44:37.347Z,88.80
2022-11-07T21:47:06.139Z,88.55
2022-11-07T21:49:32.849Z,87.82
2022-11-07T21:52:01.903Z,87.68
2022-11-07T21:54:33.344Z,87.19
2022-11-07T21:57:03.326Z,85.73
2022-11-07T21:59:32.607Z,86.99
2022-11-07T22:02:01.434Z,87.28
2022-11-07T22:04:28.273Z,87.45
2022-11-07T22:06:55.954Z,87.92
2022-11-07T22:09:24.858Z,88.77
2022-11-07T22:11:51.582Z,87.92
2022-11-07T22:14:22.797Z,86.87
2022-11-07T22:16:53.061Z,86.70
2022-11-07T22:19:22.473Z,87.66
2022-11-07T22:21:49.945Z,87.12
2022-11-07T22:24:19.035Z,86.94
2022-11-07T22:26:45.804Z,85.48
2022-11-07T22:29:17.054Z,86.97
2022-11-07T22:31:43.558Z,87.01
2022-11-07T22:34:10.428Z,86.68
2022-11-07T22:36:37.066Z,86.04
2022-11-07T22:39:05.992Z,85.72
2022-11-07T22:41:33.174Z,85.47
2022-11-07T22:43:59.756Z,84.89
2022-11-07T22:46:30.735Z,85.57
2022-11-07T22:48:58.918Z,84.31
2022-11-07T22:51:37.377Z,84.49
2022-11-07T22:54:13.339Z,84.20
2022-11-07T22:56:40.262Z,85.20
2022-11-07T22:59:10.351Z,86.19
2022-11-07T23:01:42.385Z,86.46
2022-11-07T23:04:14.973Z,86.50
2022-11-07T23:06:44.941Z,87.07
2022-11-07T23:09:17.407Z,88.10
2022-11-07T23:11:48.714Z,88.21
2022-11-07T23:14:18.917Z,88.04
2022-11-07T23:16:51.356Z,88.55
2022-11-07T23:19:20.180Z,87.13
2022-11-07T23:21:46.863Z,87.18
2022-11-07T23:24:13.797Z,87.49
2022-11-07T23:26:40.690Z,88.58
2022-11-07T23:29:11.991Z,87.43
2022-11-07T23:31:43.219Z,87.11
2022-11-07T23:34:12.570Z,86.90
2022-11-07T23:36:44.104Z,86.90
2022-11-07T23:39:17.072Z,87.28
2022-11-07T23:41:46.208Z,88.60
2022-11-07T23:44:13.904Z,88.35
2022-11-07T23:47:00.988Z,88.87
2022-11-07T23:49:36.550Z,89.18
2022-11-07T23:52:04.086Z,89.16
2022-11-07T23:54:48.822Z,88.18
2022-11-07T23:57:17.861Z,88.93
